Terminal Aerodrome Forecast
Issued by NWS

Home | Current Version | Previous Version | Text Only | Print | Product List | Glossary On
Versions: 1 2 3 4 5 6 7 8 9 10 11 12 13 14 15 16 17 18
000
FTUS44 KBMX 051300 AAA
TAFMGM
TAF AMD
KMGM 051327Z 0513/0612 32010G20KT P6SM VCSH OVC005
     FM051900 35013KT 6SM -DZ BR OVC018
     FM060600 35011KT P6SM OVC100=

USA.gov is the U.S. government's official web portal to all federal, state and local government web resources and services.